createdAt,value
2019-05-12T00:02:21.967Z,93.10
2019-05-12T00:04:48.953Z,93.20
2019-05-12T00:07:17.910Z,93.20
2019-05-12T00:09:44.470Z,93.00
2019-05-12T00:12:11.224Z,93.20
2019-05-12T00:14:38.193Z,92.50
2019-05-12T00:17:04.978Z,92.90
2019-05-12T00:19:31.808Z,92.30
2019-05-12T00:21:58.803Z,92.50
2019-05-12T00:24:27.802Z,91.20
2019-05-12T00:26:58.008Z,90.80
2019-05-12T00:29:24.653Z,91.00
2019-05-12T00:31:53.575Z,90.40
2019-05-12T00:34:21.449Z,90.40
2019-05-12T00:36:48.648Z,90.70
2019-05-12T00:39:15.520Z,91.00
2019-05-12T00:41:44.362Z,90.70
2019-05-12T00:44:11.099Z,90.50
2019-05-12T00:46:38.545Z,91.00
2019-05-12T00:49:07.808Z,91.00
2019-05-12T00:51:34.152Z,89.40
2019-05-12T00:54:00.802Z,90.20
2019-05-12T00:56:28.487Z,87.20
2019-05-12T00:58:57.892Z,87.70
2019-05-12T01:01:23.932Z,87.90
2019-05-12T01:03:50.687Z,88.40
2019-05-12T01:06:17.863Z,89.10
2019-05-12T01:08:44.517Z,90.00
2019-05-12T01:11:11.159Z,88.10
2019-05-12T01:13:38.316Z,86.20
2019-05-12T01:16:08.051Z,88.00
2019-05-12T01:18:34.708Z,86.00
2019-05-12T01:21:01.489Z,88.90
2019-05-12T01:23:29.397Z,87.90
2019-05-12T01:25:58.446Z,87.80
2019-05-12T01:28:24.608Z,88.90
2019-05-12T01:30:51.549Z,87.30
2019-05-12T01:33:18.549Z,88.30
2019-05-12T01:35:45.186Z,89.70
2019-05-12T01:38:11.966Z,89.30
2019-05-12T01:40:39.714Z,86.80
2019-05-12T01:43:08.585Z,87.70
2019-05-12T01:45:35.083Z,86.50
2019-05-12T01:48:01.854Z,85.40
2019-05-12T01:50:28.715Z,84.70
2019-05-12T01:52:55.717Z,85.30
2019-05-12T01:55:22.498Z,85.50
2019-05-12T01:57:49.241Z,86.60
2019-05-12T02:00:18.237Z,88.10
2019-05-12T02:02:44.923Z,88.00
2019-05-12T02:05:11.878Z,87.70
2019-05-12T02:07:49.093Z,87.80
2019-05-12T02:10:18.033Z,87.70
2019-05-12T02:12:44.911Z,87.80
2019-05-12T02:15:11.965Z,86.20
2019-05-12T02:17:39.269Z,85.90
2019-05-12T02:20:07.742Z,85.70
2019-05-12T02:22:34.656Z,85.60
2019-05-12T02:25:01.445Z,86.20
2019-05-12T02:27:28.404Z,87.30
2019-05-12T02:29:55.109Z,88.50
2019-05-12T02:32:25.290Z,87.90
2019-05-12T02:34:50.453Z,89.10
2019-05-12T02:37:17.203Z,90.30
2019-05-12T02:39:44.966Z,90.40
2019-05-12T02:42:15.379Z,90.40
2019-05-12T02:44:40.398Z,90.80
2019-05-12T02:47:07.238Z,91.00
2019-05-12T02:49:34.915Z,92.10
2019-05-12T02:52:04.947Z,92.40
2019-05-12T02:54:50.577Z,92.60
2019-05-12T02:57:04.311Z,93.40
2019-05-12T02:59:34.444Z,93.30
2019-05-12T03:01:59.999Z,93.90
2019-05-12T03:04:27.016Z,94.70
2019-05-12T03:06:54.936Z,95.40
2019-05-12T03:09:24.409Z,95.30
2019-05-12T03:11:51.076Z,94.20
2019-05-12T03:14:17.868Z,94.70
2019-05-12T03:16:45.437Z,95.00
2019-05-12T03:19:15.009Z,94.70
2019-05-12T03:21:44.158Z,94.60
2019-05-12T03:24:09.634Z,95.20
2019-05-12T03:26:36.404Z,95.30
2019-05-12T03:29:05.643Z,94.90
2019-05-12T03:31:38.672Z,95.30
2019-05-12T03:34:08.110Z,94.90
2019-05-12T03:36:39.042Z,95.00
2019-05-12T03:38:58.757Z,94.30
2019-05-12T03:41:25.525Z,94.50
2019-05-12T03:43:54.992Z,95.40
2019-05-12T03:46:24.975Z,96.10
2019-05-12T03:48:55.058Z,96.10
2019-05-12T03:51:20.515Z,96.30
2019-05-12T03:53:47.301Z,97.10
2019-05-12T03:56:15.045Z,96.40
2019-05-12T03:58:45.227Z,96.60
2019-05-12T04:01:10.808Z,96.70
2019-05-12T04:03:37.744Z,96.90
2019-05-12T04:06:04.866Z,97.40
2019-05-12T04:08:34.476Z,96.90
2019-05-12T04:11:00.377Z,97.30
2019-05-12T04:13:27.077Z,98.10
2019-05-12T04:15:55.727Z,98.00
2019-05-12T04:18:24.746Z,98.10
2019-05-12T04:20:54.471Z,97.70
2019-05-12T04:23:20.489Z,97.50
2019-05-12T04:25:52.610Z,96.90
2019-05-12T04:28:15.888Z,97.80
2019-05-12T04:30:44.551Z,98.40
2019-05-12T04:33:15.079Z,98.90
2019-05-12T04:35:40.133Z,99.10
2019-05-12T04:38:06.923Z,97.50
2019-05-12T04:40:35.861Z,96.90
2019-05-12T04:43:05.916Z,96.80
2019-05-12T04:45:30.837Z,97.70
2019-05-12T04:47:57.537Z,97.00
2019-05-12T04:50:24.694Z,96.60
2019-05-12T04:52:54.641Z,96.90
2019-05-12T04:55:20.291Z,97.40
2019-05-12T04:57:47.040Z,96.60
2019-05-12T05:00:15.777Z,96.90
2019-05-12T05:02:45.283Z,97.10
2019-05-12T05:05:14.242Z,96.60
2019-05-12T05:07:40.297Z,96.10
2019-05-12T05:10:07.415Z,95.80
2019-05-12T05:12:34.590Z,95.10
2019-05-12T05:15:05.197Z,94.90
2019-05-12T05:17:31.260Z,94.70
2019-05-12T05:19:59.061Z,96.20
2019-05-12T05:22:25.777Z,97.10
2019-05-12T05:24:53.618Z,96.70
2019-05-12T05:27:20.331Z,96.50
2019-05-12T05:29:47.129Z,95.90
2019-05-12T05:32:14.098Z,94.70
2019-05-12T05:34:46.222Z,93.70
2019-05-12T05:37:09.539Z,93.80
2019-05-12T05:39:47.565Z,94.40
2019-05-12T05:42:04.918Z,94.60
2019-05-12T05:44:36.276Z,93.60
2019-05-12T05:47:00.488Z,93.60
2019-05-12T05:49:27.393Z,93.40
2019-05-12T05:51:57.363Z,93.00
2019-05-12T05:54:31.079Z,93.40
2019-05-12T05:57:01.923Z,93.20
2019-05-12T05:59:21.934Z,92.60
2019-05-12T06:01:52.018Z,93.10
2019-05-12T06:04:17.372Z,91.90
2019-05-12T06:06:50.605Z,92.00
2019-05-12T06:09:14.123Z,92.60
2019-05-12T06:11:41.046Z,92.70
2019-05-12T06:14:12.865Z,92.20
2019-05-12T06:16:36.356Z,92.50
2019-05-12T06:19:03.515Z,91.80
2019-05-12T06:21:34.732Z,91.10
2019-05-12T06:23:58.976Z,90.60
2019-05-12T06:26:30.899Z,90.70
2019-05-12T06:28:57.402Z,91.20
2019-05-12T06:31:25.244Z,90.80
2019-05-12T06:33:53.546Z,91.20
2019-05-12T06:36:22.266Z,90.30
2019-05-12T06:38:48.739Z,91.10
2019-05-12T06:41:20.793Z,90.50
2019-05-12T06:43:45.444Z,90.40
2019-05-12T06:46:20.425Z,90.10
2019-05-12T06:48:43.229Z,90.50
2019-05-12T06:51:17.069Z,90.00
2019-05-12T06:53:38.066Z,90.70
2019-05-12T06:56:09.382Z,90.00
2019-05-12T06:58:34.381Z,90.60
2019-05-12T07:01:04.427Z,90.00
2019-05-12T07:03:31.521Z,90.20
2019-05-12T07:05:58.756Z,90.60
2019-05-12T07:08:27.410Z,90.70
2019-05-12T07:11:01.634Z,89.50
2019-05-12T07:13:29.036Z,89.40
2019-05-12T07:15:51.465Z,87.70
2019-05-12T07:18:24.343Z,88.40
2019-05-12T07:20:49.260Z,89.70
2019-05-12T07:23:19.822Z,89.10
2019-05-12T07:25:44.804Z,88.90
2019-05-12T07:28:11.605Z,87.90
2019-05-12T07:30:38.837Z,88.80
2019-05-12T07:33:05.676Z,87.40
2019-05-12T07:35:33.951Z,87.40
2019-05-12T07:38:01.039Z,86.80
2019-05-12T07:40:30.071Z,87.30
2019-05-12T07:42:57.288Z,86.30
2019-05-12T07:45:25.485Z,87.30
2019-05-12T07:47:54.123Z,87.60
2019-05-12T07:50:26.501Z,86.20
2019-05-12T07:52:50.175Z,87.80
2019-05-12T07:55:16.984Z,86.50
2019-05-12T07:57:53.904Z,85.90
2019-05-12T08:00:21.068Z,86.60
2019-05-12T08:02:44.374Z,87.70
2019-05-12T08:05:16.782Z,85.70
2019-05-12T08:07:41.595Z,86.50
2019-05-12T08:10:15.933Z,86.20
2019-05-12T08:12:37.577Z,85.60
2019-05-12T08:15:09.581Z,85.30
2019-05-12T08:17:34.099Z,85.00
2019-05-12T08:20:00.875Z,85.40
2019-05-12T08:22:29.461Z,86.00
2019-05-12T08:24:56.202Z,85.00
2019-05-12T08:27:23.536Z,83.70
2019-05-12T08:29:54.451Z,83.90
2019-05-12T08:32:20.419Z,84.50
2019-05-12T08:34:47.485Z,84.70
2019-05-12T08:37:14.376Z,84.70
2019-05-12T08:39:41.095Z,84.70
2019-05-12T08:42:08.975Z,83.90
2019-05-12T08:44:40.545Z,83.20
2019-05-12T08:47:04.490Z,85.60
2019-05-12T08:49:34.060Z,84.40
2019-05-12T08:52:00.344Z,83.70
2019-05-12T08:54:27.316Z,83.80
2019-05-12T08:56:59.241Z,83.80
2019-05-12T08:59:26.718Z,83.60
2019-05-12T09:01:51.148Z,83.80
2019-05-12T09:04:18.451Z,82.70
2019-05-12T09:06:45.356Z,83.20
2019-05-12T09:09:13.933Z,83.70
2019-05-12T09:11:43.998Z,82.70
2019-05-12T09:14:09.487Z,82.30
2019-05-12T09:16:36.331Z,83.80
2019-05-12T09:19:04.856Z,82.90
2019-05-12T09:21:34.152Z,82.30
2019-05-12T09:24:00.783Z,83.30
2019-05-12T09:26:28.499Z,85.20
2019-05-12T09:28:55.778Z,85.50
2019-05-12T09:31:25.521Z,86.30
2019-05-12T09:33:51.617Z,86.70
2019-05-12T09:36:21.480Z,87.80
2019-05-12T09:38:48.154Z,88.60
2019-05-12T09:41:15.100Z,86.80
2019-05-12T09:43:46.378Z,87.60
2019-05-12T09:46:10.826Z,87.20
2019-05-12T09:48:39.139Z,87.20
2019-05-12T09:51:08.007Z,87.50
2019-05-12T09:53:34.707Z,88.50
2019-05-12T09:56:01.422Z,90.10
2019-05-12T09:58:28.200Z,90.50
2019-05-12T10:00:55.053Z,90.90
2019-05-12T10:03:24.084Z,91.60
2019-05-12T10:05:50.542Z,92.00
2019-05-12T10:08:17.983Z,92.20
2019-05-12T10:10:47.009Z,91.90
2019-05-12T10:13:13.891Z,92.70
2019-05-12T10:15:40.920Z,93.20
2019-05-12T10:18:11.011Z,93.20
2019-05-12T10:20:39.723Z,93.30
2019-05-12T10:23:10.134Z,93.90
2019-05-12T10:25:34.373Z,94.70
2019-05-12T10:28:03.024Z,94.80
2019-05-12T10:30:29.873Z,95.50
2019-05-12T10:32:56.784Z,95.70
2019-05-12T10:35:26.232Z,95.00
2019-05-12T10:37:53.768Z,95.20
2019-05-12T10:40:20.514Z,95.10
2019-05-12T10:42:49.438Z,95.60
2019-05-12T10:45:20.409Z,95.30
2019-05-12T10:47:45.259Z,94.90
2019-05-12T10:50:14.211Z,94.60
2019-05-12T10:52:40.807Z,95.50
2019-05-12T10:55:08.056Z,94.70
2019-05-12T10:57:34.951Z,95.30
2019-05-12T11:00:05.180Z,94.80
2019-05-12T11:02:33.659Z,94.20
2019-05-12T11:05:00.495Z,94.10
2019-05-12T11:07:27.995Z,93.30
2019-05-12T11:09:55.863Z,93.50
2019-05-12T11:12:25.149Z,92.70
2019-05-12T11:14:51.113Z,92.70
2019-05-12T11:17:18.993Z,92.60
2019-05-12T11:19:51.314Z,91.30
2019-05-12T11:22:14.270Z,91.20
2019-05-12T11:24:41.206Z,91.40
2019-05-12T11:27:07.863Z,91.70
2019-05-12T11:29:46.225Z,91.70
2019-05-12T11:32:05.140Z,91.30
2019-05-12T11:34:33.583Z,91.60
2019-05-12T11:37:00.569Z,91.20
2019-05-12T11:39:30.623Z,91.00
2019-05-12T11:41:55.959Z,91.30
2019-05-12T11:44:23.242Z,91.00
2019-05-12T11:46:50.219Z,91.70
2019-05-12T11:49:21.619Z,91.10
2019-05-12T11:51:46.677Z,90.40
2019-05-12T11:54:13.835Z,90.90
2019-05-12T11:56:46.607Z,90.50
2019-05-12T11:59:09.428Z,89.50
2019-05-12T12:01:39.533Z,90.20
2019-05-12T12:04:04.935Z,90.30
2019-05-12T12:06:33.171Z,90.20
2019-05-12T12:09:00.073Z,88.70
2019-05-12T12:11:28.067Z,88.70
2019-05-12T12:13:55.112Z,87.80
2019-05-12T12:16:23.760Z,87.30
2019-05-12T12:18:59.521Z,86.20
2019-05-12T12:21:19.003Z,86.50
2019-05-12T12:23:50.041Z,86.60
2019-05-12T12:26:20.145Z,83.60
2019-05-12T12:28:45.009Z,84.30
2019-05-12T12:31:13.217Z,83.20
2019-05-12T12:33:41.031Z,83.70
2019-05-12T12:36:09.068Z,80.70
2019-05-12T12:38:35.913Z,80.70
2019-05-12T12:41:03.862Z,81.10
2019-05-12T12:43:30.839Z,81.90
2019-05-12T12:45:59.479Z,81.00
2019-05-12T12:48:29.710Z,80.50
2019-05-12T12:50:55.178Z,80.60
2019-05-12T12:53:23.811Z,81.00
2019-05-12T12:55:50.680Z,81.70
2019-05-12T12:58:21.108Z,80.30
2019-05-12T13:00:53.635Z,79.90
2019-05-12T13:03:19.725Z,79.40
2019-05-12T13:05:45.531Z,81.50
2019-05-12T13:08:12.282Z,80.00
2019-05-12T13:10:40.471Z,80.60
2019-05-12T13:13:07.793Z,79.70
2019-05-12T13:15:34.377Z,79.30
2019-05-12T13:18:01.125Z,80.40
2019-05-12T13:20:27.938Z,79.20
2019-05-12T13:22:54.867Z,79.30
2019-05-12T13:25:21.736Z,79.10
2019-05-12T13:27:48.800Z,78.30
2019-05-12T13:30:20.131Z,78.30
2019-05-12T13:32:44.844Z,79.00
2019-05-12T13:35:16.491Z,78.40
2019-05-12T13:37:40.459Z,77.80
2019-05-12T13:40:07.735Z,77.80
2019-05-12T13:42:35.750Z,77.00
2019-05-12T13:45:05.253Z,78.40
2019-05-12T13:47:35.496Z,77.20
2019-05-12T13:50:00.784Z,76.50
2019-05-12T13:52:30.343Z,77.20
2019-05-12T13:55:00.090Z,76.60
2019-05-12T13:57:24.798Z,77.00
2019-05-12T13:59:55.790Z,76.20
2019-05-12T14:02:22.107Z,75.90
2019-05-12T14:04:49.225Z,76.50
2019-05-12T14:07:20.022Z,75.70
2019-05-12T14:09:44.734Z,75.70
2019-05-12T14:12:13.572Z,76.40
2019-05-12T14:14:40.380Z,75.90
2019-05-12T14:17:07.264Z,75.50
2019-05-12T14:19:35.543Z,77.00
2019-05-12T14:22:03.502Z,77.90
2019-05-12T14:24:33.134Z,78.20
2019-05-12T14:26:59.223Z,79.40
2019-05-12T14:29:30.402Z,79.10
2019-05-12T14:32:01.894Z,79.80
2019-05-12T14:34:23.679Z,80.20
2019-05-12T14:36:50.891Z,80.20
2019-05-12T14:39:17.672Z,80.30
2019-05-12T14:41:53.045Z,79.80
2019-05-12T14:44:13.818Z,79.70
2019-05-12T14:46:46.258Z,80.90
2019-05-12T14:49:09.486Z,80.80
2019-05-12T14:51:36.231Z,80.20
2019-05-12T14:54:04.001Z,80.10
2019-05-12T14:56:30.989Z,80.10
2019-05-12T14:59:00.724Z,80.20
2019-05-12T15:01:38.466Z,79.20
2019-05-12T15:03:55.408Z,79.40
2019-05-12T15:06:25.573Z,79.60
2019-05-12T15:08:53.960Z,80.10
2019-05-12T15:11:23.741Z,80.50
2019-05-12T15:13:50.774Z,80.50
2019-05-12T15:16:17.615Z,80.60
2019-05-12T15:18:46.596Z,80.40
2019-05-12T15:21:13.837Z,80.10
2019-05-12T15:23:40.814Z,80.90
2019-05-12T15:26:09.655Z,81.30
2019-05-12T15:28:36.310Z,83.00
2019-05-12T15:31:03.832Z,85.10
2019-05-12T15:33:32.990Z,85.70
2019-05-12T15:35:59.420Z,86.60
2019-05-12T15:38:26.295Z,87.60
2019-05-12T15:40:53.769Z,89.20
2019-05-12T15:43:20.660Z,90.00
2019-05-12T15:45:49.109Z,90.30
2019-05-12T15:48:18.492Z,90.00
2019-05-12T15:50:45.789Z,90.20
2019-05-12T15:53:13.743Z,90.30
2019-05-12T15:55:43.485Z,89.30
2019-05-12T15:58:10.048Z,87.80
2019-05-12T16:00:38.437Z,87.70
2019-05-12T16:03:05.444Z,86.90
2019-05-12T16:05:33.867Z,86.00
2019-05-12T16:08:00.702Z,86.50
2019-05-12T16:10:27.596Z,85.20
2019-05-12T16:12:54.424Z,85.80
2019-05-12T16:15:21.395Z,86.40
2019-05-12T16:17:48.171Z,85.10
2019-05-12T16:20:16.305Z,85.40
2019-05-12T16:22:45.191Z,86.10
2019-05-12T16:25:15.214Z,87.30
2019-05-12T16:27:41.667Z,86.50
2019-05-12T16:30:08.647Z,86.70
2019-05-12T16:32:43.079Z,86.00
2019-05-12T16:35:07.275Z,86.50
2019-05-12T16:37:35.289Z,87.30
2019-05-12T16:40:04.489Z,86.70
2019-05-12T16:42:33.475Z,86.10
2019-05-12T16:45:06.071Z,87.20
2019-05-12T16:47:33.002Z,86.30
2019-05-12T16:49:57.562Z,87.30
2019-05-12T16:52:24.522Z,86.80
2019-05-12T16:54:53.902Z,86.30
2019-05-12T16:57:20.215Z,86.20
2019-05-12T16:59:47.010Z,86.50
2019-05-12T17:02:13.861Z,86.00
2019-05-12T17:04:40.576Z,85.50
2019-05-12T17:07:09.682Z,86.40
2019-05-12T17:09:36.020Z,86.50
2019-05-12T17:12:05.101Z,85.40
2019-05-12T17:14:36.611Z,85.60
2019-05-12T17:17:00.290Z,86.20
2019-05-12T17:19:27.155Z,86.10
2019-05-12T17:21:58.040Z,85.50
2019-05-12T17:24:23.900Z,84.70
2019-05-12T17:26:50.920Z,84.60
2019-05-12T17:29:17.880Z,84.30
2019-05-12T17:31:44.678Z,83.90
2019-05-12T17:34:11.667Z,84.80
2019-05-12T17:36:40.018Z,85.00
2019-05-12T17:39:07.077Z,85.10
2019-05-12T17:41:40.513Z,84.50
2019-05-12T17:44:04.325Z,85.40
2019-05-12T17:46:32.326Z,84.70
2019-05-12T17:48:59.712Z,84.70
2019-05-12T17:51:30.785Z,83.60
2019-05-12T17:53:55.171Z,83.90
2019-05-12T17:56:25.117Z,83.70
2019-05-12T17:58:52.783Z,83.80
2019-05-12T18:01:23.023Z,82.50
2019-05-12T18:03:50.579Z,82.70
2019-05-12T18:06:20.400Z,83.90
2019-05-12T18:08:45.386Z,84.00
2019-05-12T18:11:15.809Z,84.20
2019-05-12T18:13:40.887Z,83.90
2019-05-12T18:16:11.630Z,84.00
2019-05-12T18:18:38.256Z,83.30
2019-05-12T18:21:04.920Z,83.30
2019-05-12T18:23:34.187Z,82.10
2019-05-12T18:26:05.789Z,81.30
2019-05-12T18:28:29.539Z,81.30
2019-05-12T18:30:56.786Z,79.50
2019-05-12T18:33:33.456Z,78.80
2019-05-12T18:35:54.325Z,78.30
2019-05-12T18:38:23.912Z,78.00
2019-05-12T18:40:49.404Z,77.10
2019-05-12T18:43:16.153Z,76.50
2019-05-12T18:45:43.066Z,75.20
2019-05-12T18:48:17.960Z,76.00
2019-05-12T18:50:38.581Z,74.80
2019-05-12T18:53:05.397Z,73.90
2019-05-12T18:55:35.762Z,75.20
2019-05-12T18:58:00.844Z,73.80
2019-05-12T19:00:27.762Z,73.20
2019-05-12T19:02:59.541Z,73.00
2019-05-12T19:05:30.503Z,72.50
2019-05-12T19:07:54.282Z,73.10
2019-05-12T19:10:21.346Z,73.10
2019-05-12T19:12:51.754Z,73.10
2019-05-12T19:15:21.741Z,73.80
2019-05-12T19:17:45.971Z,74.20
2019-05-12T19:20:13.541Z,73.20
2019-05-12T19:22:48.122Z,74.70
2019-05-12T19:25:14.420Z,74.20
2019-05-12T19:27:40.605Z,74.40
2019-05-12T19:30:07.571Z,75.30
2019-05-12T19:32:36.684Z,75.90
2019-05-12T19:35:09.649Z,77.10
2019-05-12T19:37:34.466Z,79.00
2019-05-12T19:40:06.032Z,80.60
2019-05-12T19:42:30.661Z,81.70
2019-05-12T19:44:59.979Z,82.10
2019-05-12T19:47:33.152Z,83.20
2019-05-12T19:49:59.542Z,83.20
2019-05-12T19:52:24.408Z,81.10
2019-05-12T19:54:51.842Z,81.80
2019-05-12T19:57:21.935Z,81.10
2019-05-12T19:59:50.902Z,79.40
2019-05-12T20:02:16.133Z,78.60
2019-05-12T20:04:51.751Z,78.80
2019-05-12T20:07:11.701Z,77.90
2019-05-12T20:09:38.458Z,78.00
2019-05-12T20:12:08.382Z,77.60
2019-05-12T20:14:34.509Z,78.20
2019-05-12T20:17:01.187Z,77.90
2019-05-12T20:19:28.055Z,77.40
2019-05-12T20:21:54.849Z,76.90
2019-05-12T20:24:23.692Z,77.20
2019-05-12T20:26:50.217Z,77.00
2019-05-12T20:29:16.989Z,76.50
2019-05-12T20:31:48.592Z,77.00
2019-05-12T20:34:13.935Z,78.20
2019-05-12T20:36:40.780Z,78.40
2019-05-12T20:39:09.887Z,77.40
2019-05-12T20:41:36.256Z,77.50
2019-05-12T20:44:03.350Z,76.80
2019-05-12T20:46:30.115Z,76.90
2019-05-12T20:49:01.288Z,77.90
2019-05-12T20:51:25.398Z,78.30
2019-05-12T20:53:52.217Z,78.00
2019-05-12T20:56:21.932Z,78.20
2019-05-12T20:58:47.920Z,79.50
2019-05-12T21:01:14.980Z,78.70
2019-05-12T21:03:46.403Z,78.30
2019-05-12T21:06:10.609Z,78.30
2019-05-12T21:08:37.718Z,77.80
2019-05-12T21:11:04.637Z,77.00
2019-05-12T21:13:31.907Z,77.10
2019-05-12T21:16:00.050Z,76.70
2019-05-12T21:18:26.737Z,76.50
2019-05-12T21:20:54.749Z,76.40
2019-05-12T21:23:23.903Z,76.50
2019-05-12T21:25:53.363Z,76.40
2019-05-12T21:28:18.756Z,75.10
2019-05-12T21:30:48.300Z,75.00
2019-05-12T21:33:14.880Z,74.00
2019-05-12T21:35:45.836Z,74.90
2019-05-12T21:38:10.428Z,74.50
2019-05-12T21:40:37.379Z,74.70
2019-05-12T21:43:04.242Z,74.20
2019-05-12T21:45:31.341Z,74.00
2019-05-12T21:47:58.124Z,74.60
2019-05-12T21:50:32.707Z,73.70
2019-05-12T21:52:57.024Z,73.70
2019-05-12T21:55:26.637Z,73.90
2019-05-12T21:57:53.829Z,73.40
2019-05-12T22:00:34.870Z,73.40
2019-05-12T22:03:09.634Z,73.20
2019-05-12T22:05:48.206Z,73.10
2019-05-12T22:08:00.276Z,72.70
2019-05-12T22:10:30.774Z,72.80
2019-05-12T22:13:00.529Z,72.50
2019-05-12T22:15:24.802Z,71.80
2019-05-12T22:17:59.549Z,71.80
2019-05-12T22:20:31.530Z,70.30
2019-05-12T22:23:00.472Z,69.60
2019-05-12T22:25:27.221Z,70.40
2019-05-12T22:27:58.845Z,70.20
2019-05-12T22:30:24.156Z,70.10
2019-05-12T22:32:54.024Z,69.40
2019-05-12T22:35:21.843Z,69.90
2019-05-12T22:37:49.084Z,69.50
2019-05-12T22:40:19.297Z,69.40
2019-05-12T22:42:44.596Z,70.10
2019-05-12T22:45:15.084Z,69.40
2019-05-12T22:47:40.792Z,69.20
2019-05-12T22:50:07.817Z,69.20
2019-05-12T22:52:39.058Z,69.30
2019-05-12T22:55:04.908Z,69.10
2019-05-12T22:57:35.600Z,68.60
2019-05-12T23:00:03.840Z,68.70
2019-05-12T23:02:33.776Z,68.40
2019-05-12T23:05:00.350Z,67.90
2019-05-12T23:07:29.702Z,67.90
2019-05-12T23:10:00.720Z,68.60
2019-05-12T23:12:24.192Z,68.60
2019-05-12T23:14:54.090Z,67.70
2019-05-12T23:17:19.736Z,68.30
2019-05-12T23:19:51.513Z,67.40
2019-05-12T23:22:16.189Z,67.00
2019-05-12T23:24:44.111Z,67.30
2019-05-12T23:27:10.989Z,67.20
2019-05-12T23:29:38.734Z,67.20
2019-05-12T23:32:11.785Z,67.50
2019-05-12T23:34:34.098Z,66.50
2019-05-12T23:37:00.846Z,66.60
2019-05-12T23:39:32.405Z,66.10
2019-05-12T23:41:56.295Z,65.80
2019-05-12T23:44:24.006Z,66.20
2019-05-12T23:46:50.896Z,66.70
2019-05-12T23:49:17.676Z,66.10
2019-05-12T23:51:44.514Z,65.90
2019-05-12T23:54:11.280Z,66.10
2019-05-12T23:56:37.985Z,66.70
2019-05-12T23:59:04.767Z,65.90
